Time;durP1;ratioP1;P1;durP2;ratioP2;P2;SDS_P1;SDS_P2;PMS_P1;PMS_P2;Temp;Humidity;BMP_temperature;BMP_pressure;BME280_temperature;BME280_humidity;BME280_pressure;Samples;Min_cycle;Max_cycle;Signal;HPM_P1;HPM_P2
2022/01/20 00:03:59;;;;;;;30.92;12.65;;;;;;;;;;8465575;28;20062;-76
2022/01/20 00:08:17;;;;;;;28.33;13.30;;;;;;;;;;8465431;28;20093;-75
2022/01/20 00:34:32;;;;;;;31.85;14.60;;;;;;;;;;8464128;28;20044;-74
2022/01/20 00:38:35;;;;;;;27.63;14.05;;;;;;;;;;8464053;28;20039;-73
2022/01/20 00:42:37;;;;;;;26.38;13.52;;;;;;;;;;8445501;28;20052;-76
2022/01/20 00:46:40;;;;;;;36.10;14.93;;;;;;;;;;8435353;28;20052;-77
2022/01/20 00:50:43;;;;;;;23.52;12.43;;;;;;;;;;8446925;28;20368;-76
2022/01/20 00:54:46;;;;;;;30.00;12.60;;;;;;;;;;8464606;28;20051;-74
2022/01/20 00:58:48;;;;;;;29.90;14.43;;;;;;;;;;8463778;28;20119;-74
2022/01/20 01:02:51;;;;;;;26.08;13.85;;;;;;;;;;8465925;28;20052;-75
2022/01/20 01:07:14;;;;;;;;;;;;;;;;;;8468690;28;20085;-74
2022/01/20 01:11:18;;;;;;;34.55;14.68;;;;;;;;;;8470472;28;19923;-76
2022/01/20 01:15:21;;;;;;;29.55;11.82;;;;;;;;;;8464104;28;20039;-73
2022/01/20 01:23:46;;;;;;;29.65;14.90;;;;;;;;;;8436387;28;20051;-78
2022/01/20 01:27:49;;;;;;;21.55;13.05;;;;;;;;;;8448235;28;20066;-75
2022/01/20 01:31:51;;;;;;;32.90;13.80;;;;;;;;;;8439060;28;20416;-74
2022/01/20 01:35:56;;;;;;;30.90;13.55;;;;;;;;;;8457392;28;20039;-75
2022/01/20 01:40:01;;;;;;;27.90;13.60;;;;;;;;;;8447347;28;20044;-74
2022/01/20 01:44:07;;;;;;;32.15;14.38;;;;;;;;;;8435757;28;20079;-74
2022/01/20 01:48:10;;;;;;;33.80;13.65;;;;;;;;;;8435528;28;20059;-74
2022/01/20 01:52:12;;;;;;;31.80;14.02;;;;;;;;;;8436057;28;20498;-77
2022/01/20 01:56:16;;;;;;;26.77;11.98;;;;;;;;;;8450309;27;20402;-74
2022/01/20 02:00:19;;;;;;;30.42;13.82;;;;;;;;;;8450631;28;20036;-74
2022/01/20 02:04:22;;;;;;;30.10;12.25;;;;;;;;;;8435760;28;20047;-77
2022/01/20 02:08:35;;;;;;;31.27;12.88;;;;;;;;;;8435507;28;20480;-75
2022/01/20 02:21:30;;;;;;;25.88;11.85;;;;;;;;;;8434616;28;20040;-73
2022/01/20 02:25:34;;;;;;;31.10;15.25;;;;;;;;;;8434978;28;20044;-73
2022/01/20 02:29:36;;;;;;;32.92;15.60;;;;;;;;;;8434280;28;20040;-74
2022/01/20 02:33:39;;;;;;;30.15;14.27;;;;;;;;;;8434728;28;20040;-74
2022/01/20 02:37:46;;;;;;;24.75;12.52;;;;;;;;;;8434479;28;20131;-75
2022/01/20 02:46:23;;;;;;;27.67;13.63;;;;;;;;;;8330250;28;20050;-74
2022/01/20 02:50:26;;;;;;;29.25;13.43;;;;;;;;;;8376770;28;20040;-73
2022/01/20 02:54:29;;;;;;;23.70;12.10;;;;;;;;;;8433591;28;20052;-73
2022/01/20 02:58:32;;;;;;;25.85;14.80;;;;;;;;;;8433359;28;20048;-73
2022/01/20 03:02:34;;;;;;;26.40;12.05;;;;;;;;;;8433725;28;20154;-76
2022/01/20 03:06:37;;;;;;;27.92;14.07;;;;;;;;;;8433132;28;20055;-74
2022/01/20 03:10:41;;;;;;;27.58;13.45;;;;;;;;;;8432927;28;20051;-75
2022/01/20 03:14:43;;;;;;;27.00;13.23;;;;;;;;;;8432906;28;20044;-74
2022/01/20 03:18:45;;;;;;;;;;;;;;;;;;8433788;28;20469;-73
2022/01/20 03:22:48;;;;;;;30.65;14.10;;;;;;;;;;8432638;28;20389;-74
2022/01/20 03:26:51;;;;;;;30.52;14.68;;;;;;;;;;8431393;28;20090;-75
2022/01/20 03:30:54;;;;;;;31.20;14.48;;;;;;;;;;8432750;28;20047;-74
2022/01/20 03:34:56;;;;;;;37.25;17.63;;;;;;;;;;8432676;28;20101;-73
2022/01/20 03:38:59;;;;;;;27.83;14.30;;;;;;;;;;8432980;28;20040;-76
2022/01/20 03:43:03;;;;;;;33.78;16.58;;;;;;;;;;8432127;28;20048;-74
2022/01/20 03:47:08;;;;;;;34.92;16.52;;;;;;;;;;8432075;28;20487;-78
2022/01/20 03:51:10;;;;;;;34.47;14.88;;;;;;;;;;8432161;28;20071;-74
2022/01/20 03:55:13;;;;;;;33.97;17.92;;;;;;;;;;8431689;28;20044;-74
2022/01/20 03:59:16;;;;;;;40.13;16.63;;;;;;;;;;8432065;28;20054;-74
2022/01/20 04:03:20;;;;;;;37.15;17.17;;;;;;;;;;8431854;28;20055;-74
2022/01/20 04:07:22;;;;;;;29.92;12.27;;;;;;;;;;8431281;28;20044;-75
2022/01/20 04:11:26;;;;;;;33.47;15.82;;;;;;;;;;8431075;28;20044;-74
2022/01/20 04:15:38;;;;;;;34.60;17.33;;;;;;;;;;8431501;28;20483;-76
2022/01/20 04:19:40;;;;;;;42.78;20.55;;;;;;;;;;8431465;28;20048;-75
2022/01/20 04:23:42;;;;;;;38.95;17.00;;;;;;;;;;8430781;28;20056;-73
2022/01/20 04:27:45;;;;;;;53.90;23.67;;;;;;;;;;8431202;28;20496;-75
2022/01/20 04:31:50;;;;;;;38.08;17.17;;;;;;;;;;8431063;28;20411;-74
2022/01/20 04:35:52;;;;;;;43.38;23.17;;;;;;;;;;8431034;28;20495;-73
2022/01/20 04:39:55;;;;;;;;;;;;;;;;;;8430820;28;20126;-75
2022/01/20 04:43:59;;;;;;;40.30;18.48;;;;;;;;;;8430843;28;19927;-72
2022/01/20 04:48:16;;;;;;;37.55;17.05;;;;;;;;;;8430058;28;20044;-74
2022/01/20 05:01:02;;;;;;;38.88;19.88;;;;;;;;;;8430558;28;20426;-74
2022/01/20 05:05:08;;;;;;;35.40;16.77;;;;;;;;;;8430419;28;20048;-73
2022/01/20 05:09:17;;;;;;;34.65;17.10;;;;;;;;;;8429932;28;20048;-73
2022/01/20 05:13:26;;;;;;;27.15;14.02;;;;;;;;;;8429916;28;20052;-73
2022/01/20 05:17:28;;;;;;;30.92;14.35;;;;;;;;;;8429900;28;20093;-74
2022/01/20 05:21:32;;;;;;;29.33;14.38;;;;;;;;;;8430236;28;20165;-76
2022/01/20 05:25:35;;;;;;;31.33;14.48;;;;;;;;;;8429714;28;20043;-74
2022/01/20 05:29:37;;;;;;;36.55;17.08;;;;;;;;;;8430167;28;20475;-76
2022/01/20 05:33:40;;;;;;;30.17;14.50;;;;;;;;;;8429625;28;20483;-73
2022/01/20 05:37:43;;;;;;;23.48;12.35;;;;;;;;;;8429628;28;20454;-73
2022/01/20 05:41:46;;;;;;;23.83;13.15;;;;;;;;;;8430436;28;20411;-77
2022/01/20 05:45:49;;;;;;;26.27;12.70;;;;;;;;;;8429693;28;20400;-74
2022/01/20 06:07:28;;;;;;;20.70;12.80;;;;;;;;;;8449511;27;20425;-73
2022/01/20 06:11:31;;;;;;;22.30;11.75;;;;;;;;;;8457336;28;20048;-74
2022/01/20 06:15:33;;;;;;;25.58;12.48;;;;;;;;;;8458939;28;20059;-73
2022/01/20 06:19:36;;;;;;;18.98;9.95;;;;;;;;;;8458883;28;20048;-73
2022/01/20 06:23:41;;;;;;;23.63;11.65;;;;;;;;;;8458959;28;20072;-73
2022/01/20 06:27:44;;;;;;;18.70;10.23;;;;;;;;;;8458622;28;20047;-73
2022/01/20 06:31:46;;;;;;;20.23;10.35;;;;;;;;;;8457337;28;20076;-73
2022/01/20 06:35:49;;;;;;;23.20;12.10;;;;;;;;;;8458458;28;20051;-73
2022/01/20 06:39:59;;;;;;;23.02;13.18;;;;;;;;;;8457650;28;20127;-73
2022/01/20 06:44:02;;;;;;;18.40;11.00;;;;;;;;;;8450459;28;20063;-73
2022/01/20 06:48:05;;;;;;;21.02;9.57;;;;;;;;;;8458004;28;20528;-73
2022/01/20 06:52:08;;;;;;;23.92;11.38;;;;;;;;;;8456762;28;20054;-74
2022/01/20 06:56:12;;;;;;;20.42;9.68;;;;;;;;;;8458349;28;20106;-73
2022/01/20 07:00:18;;;;;;;16.73;9.63;;;;;;;;;;8458225;28;20069;-74
2022/01/20 07:04:21;;;;;;;16.00;8.50;;;;;;;;;;8457285;28;20058;-74
2022/01/20 07:08:23;;;;;;;21.83;10.15;;;;;;;;;;8435284;28;20532;-73
2022/01/20 07:12:27;;;;;;;23.20;10.85;;;;;;;;;;8434929;28;20082;-73
2022/01/20 07:16:30;;;;;;;18.25;9.77;;;;;;;;;;8432068;28;20079;-73
2022/01/20 07:20:33;;;;;;;22.55;11.93;;;;;;;;;;8413013;28;20052;-73
2022/01/20 07:24:37;;;;;;;17.35;8.95;;;;;;;;;;8433497;28;20044;-73
2022/01/20 07:28:42;;;;;;;16.48;8.73;;;;;;;;;;8434259;28;20044;-73
2022/01/20 07:32:46;;;;;;;13.82;7.60;;;;;;;;;;8434066;28;20060;-73
2022/01/20 07:36:53;;;;;;;12.40;7.13;;;;;;;;;;8434095;28;20406;-73
2022/01/20 07:41:01;;;;;;;13.70;6.57;;;;;;;;;;8434518;28;20051;-73
2022/01/20 07:45:06;;;;;;;18.45;7.60;;;;;;;;;;8433676;28;20051;-73
2022/01/20 07:49:09;;;;;;;13.38;5.70;;;;;;;;;;8433964;28;20040;-73
2022/01/20 07:53:12;;;;;;;12.07;5.90;;;;;;;;;;8433477;28;20048;-73
2022/01/20 07:57:14;;;;;;;12.05;6.10;;;;;;;;;;8430120;28;20487;-73
2022/01/20 08:01:18;;;;;;;14.32;6.15;;;;;;;;;;8432481;28;20119;-73
2022/01/20 08:05:21;;;;;;;22.27;7.03;;;;;;;;;;8432219;28;20052;-73
2022/01/20 08:09:24;;;;;;;17.13;7.57;;;;;;;;;;8432946;28;20105;-72
2022/01/20 08:13:27;;;;;;;19.38;8.50;;;;;;;;;;8432584;28;20117;-73
2022/01/20 08:17:32;;;;;;;14.65;6.80;;;;;;;;;;8430609;28;20048;-73
2022/01/20 08:21:35;;;;;;;13.65;6.28;;;;;;;;;;8418420;28;20047;-73
2022/01/20 08:25:38;;;;;;;18.02;5.50;;;;;;;;;;8429759;28;20123;-74
2022/01/20 08:29:41;;;;;;;11.43;6.03;;;;;;;;;;8431942;28;20127;-74
2022/01/20 08:33:46;;;;;;;10.45;5.03;;;;;;;;;;8431022;28;20428;-74
2022/01/20 08:37:49;;;;;;;12.05;4.80;;;;;;;;;;8426091;28;20044;-73
2022/01/20 08:41:51;;;;;;;14.65;5.85;;;;;;;;;;8429151;28;20169;-73
2022/01/20 08:45:54;;;;;;;8.05;3.85;;;;;;;;;;8431055;28;20048;-73
2022/01/20 08:49:59;;;;;;;10.07;3.78;;;;;;;;;;8431619;28;20567;-73
2022/01/20 08:54:01;;;;;;;9.55;4.25;;;;;;;;;;8430943;28;20052;-73
2022/01/20 08:58:06;;;;;;;7.38;3.53;;;;;;;;;;8430179;28;20051;-73
2022/01/20 09:02:10;;;;;;;8.70;3.22;;;;;;;;;;8430780;28;20048;-73
2022/01/20 09:06:15;;;;;;;7.38;2.90;;;;;;;;;;8430538;28;20456;-73
2022/01/20 09:10:20;;;;;;;8.05;2.80;;;;;;;;;;8431466;28;20060;-73
2022/01/20 14:30:35;;;;;;;89.35;30.30;;;;;;;;;;8104877;27;11823657;-72
2022/01/20 14:34:39;;;;;;;40.97;17.30;;;;;;;;;;8491837;28;20047;-73
2022/01/20 14:38:45;;;;;;;79.20;33.67;;;;;;;;;;8471274;28;20131;-73
2022/01/20 14:42:57;;;;;;;20.05;9.75;;;;;;;;;;8477380;28;20043;-73
2022/01/20 14:47:03;;;;;;;20.25;8.23;;;;;;;;;;8483908;28;20474;-73
2022/01/20 14:51:08;;;;;;;17.65;6.88;;;;;;;;;;8469337;28;20046;-72
2022/01/20 14:55:12;;;;;;;11.77;5.28;;;;;;;;;;8486073;28;20047;-73
2022/01/20 14:59:15;;;;;;;8.88;3.60;;;;;;;;;;8484590;28;20466;-72
2022/01/20 15:03:20;;;;;;;12.30;4.32;;;;;;;;;;8483109;28;20138;-72
2022/01/20 15:07:23;;;;;;;24.17;9.40;;;;;;;;;;8479400;28;20150;-72
2022/01/20 15:11:26;;;;;;;8.50;4.07;;;;;;;;;;8469251;28;20070;-73
2022/01/20 15:15:30;;;;;;;16.80;6.80;;;;;;;;;;8457289;28;20150;-74
2022/01/20 15:19:36;;;;;;;20.55;7.72;;;;;;;;;;8457394;28;20056;-73
2022/01/20 15:23:43;;;;;;;20.98;8.68;;;;;;;;;;8456990;28;20043;-74
2022/01/20 15:27:46;;;;;;;15.30;4.95;;;;;;;;;;8455935;28;20112;-72
2022/01/20 15:31:53;;;;;;;51.30;16.92;;;;;;;;;;8447112;28;20067;-74
2022/01/20 15:36:00;;;;;;;14.02;4.30;;;;;;;;;;8464746;28;20070;-73
2022/01/20 15:40:05;;;;;;;17.35;6.60;;;;;;;;;;8467816;28;20051;-73
2022/01/20 15:44:08;;;;;;;53.78;17.70;;;;;;;;;;8464075;28;20063;-75
2022/01/20 15:48:11;;;;;;;23.77;7.93;;;;;;;;;;8461252;28;20047;-76
2022/01/20 15:52:17;;;;;;;28.58;6.72;;;;;;;;;;8453013;28;20082;-74
2022/01/20 15:56:22;;;;;;;24.48;5.65;;;;;;;;;;8457788;28;20076;-74
2022/01/20 16:00:32;;;;;;;34.00;12.57;;;;;;;;;;8459877;28;20040;-74
2022/01/20 16:04:50;;;;;;;33.20;13.47;;;;;;;;;;8463508;28;20043;-74
2022/01/20 16:09:11;;;;;;;185.02;44.28;;;;;;;;;;8454619;28;20645;-73
2022/01/20 16:13:43;;;;;;;57.00;19.52;;;;;;;;;;8464176;28;20070;-74
2022/01/20 16:17:56;;;;;;;139.52;39.75;;;;;;;;;;8464326;28;20039;-74
2022/01/20 16:22:29;;;;;;;38.65;13.95;;;;;;;;;;8456900;28;20040;-73
2022/01/20 16:26:45;;;;;;;38.83;15.15;;;;;;;;;;8459406;28;20050;-74
2022/01/20 16:31:00;;;;;;;75.82;26.88;;;;;;;;;;8417261;28;21528;-73
2022/01/20 16:35:09;;;;;;;35.85;15.35;;;;;;;;;;8399268;28;20068;-74
2022/01/20 16:39:22;;;;;;;43.73;20.00;;;;;;;;;;8401871;28;20524;-74
2022/01/20 16:43:36;;;;;;;26.52;10.77;;;;;;;;;;8416028;28;20116;-74
2022/01/20 16:47:54;;;;;;;23.42;9.50;;;;;;;;;;8416287;28;20044;-72
2022/01/20 16:52:10;;;;;;;13.10;7.07;;;;;;;;;;8397882;28;20048;-73
2022/01/20 16:56:24;;;;;;;28.73;10.93;;;;;;;;;;8398953;28;20504;-73
2022/01/20 17:00:37;;;;;;;29.85;10.90;;;;;;;;;;8397700;28;20435;-73
2022/01/20 17:04:46;;;;;;;18.67;8.05;;;;;;;;;;8411373;28;20044;-73
2022/01/20 17:08:53;;;;;;;23.35;9.60;;;;;;;;;;8417149;28;20055;-74
2022/01/20 17:13:01;;;;;;;14.82;6.40;;;;;;;;;;8407865;28;20050;-74
2022/01/20 17:17:06;;;;;;;16.02;5.32;;;;;;;;;;8400663;28;20059;-73
2022/01/20 17:21:09;;;;;;;18.17;5.22;;;;;;;;;;8406541;28;20464;-76
2022/01/20 17:25:13;;;;;;;21.95;7.28;;;;;;;;;;8397698;28;20399;-74
2022/01/20 17:29:18;;;;;;;13.65;5.38;;;;;;;;;;8419357;28;20082;-72
2022/01/20 17:33:24;;;;;;;19.98;6.07;;;;;;;;;;8430576;28;20555;-74
2022/01/20 17:37:28;;;;;;;16.92;6.43;;;;;;;;;;8430673;28;20052;-73
2022/01/20 17:41:35;;;;;;;11.27;5.32;;;;;;;;;;8430682;28;20506;-73
2022/01/20 17:45:39;;;;;;;16.15;5.57;;;;;;;;;;8444231;28;20079;-74
2022/01/20 17:49:44;;;;;;;18.77;6.45;;;;;;;;;;8457246;28;20431;-73
2022/01/20 17:53:47;;;;;;;21.48;7.93;;;;;;;;;;8435916;28;20368;-75
2022/01/20 17:57:52;;;;;;;20.65;7.60;;;;;;;;;;8439099;28;20062;-74
2022/01/20 18:01:56;;;;;;;18.75;7.60;;;;;;;;;;8420610;28;20132;-73
2022/01/20 18:06:00;;;;;;;14.88;6.63;;;;;;;;;;8441398;28;20044;-73
2022/01/20 18:10:05;;;;;;;19.58;7.93;;;;;;;;;;8432859;28;20044;-73
2022/01/20 18:14:08;;;;;;;18.13;6.88;;;;;;;;;;8435213;28;20047;-73
2022/01/20 18:18:12;;;;;;;21.90;7.55;;;;;;;;;;8440829;28;20040;-73
2022/01/20 18:22:17;;;;;;;16.17;6.15;;;;;;;;;;8441167;28;20051;-73
2022/01/20 18:26:20;;;;;;;18.00;6.78;;;;;;;;;;8434414;28;20048;-74
2022/01/20 18:30:23;;;;;;;16.85;7.53;;;;;;;;;;8434214;28;20537;-72
2022/01/20 18:34:26;;;;;;;19.42;7.57;;;;;;;;;;8430356;28;20044;-73
2022/01/20 18:38:31;;;;;;;19.35;7.18;;;;;;;;;;8440882;28;20127;-73
2022/01/20 18:42:34;;;;;;;19.92;8.65;;;;;;;;;;8438930;28;20040;-73
2022/01/20 18:46:38;;;;;;;24.85;8.05;;;;;;;;;;8451870;28;20040;-76
2022/01/20 18:50:42;;;;;;;28.17;9.13;;;;;;;;;;8437962;28;20073;-73
2022/01/20 18:54:47;;;;;;;18.45;7.50;;;;;;;;;;8441329;28;20036;-74
2022/01/20 18:59:02;;;;;;;24.75;9.23;;;;;;;;;;8429200;28;20369;-74
2022/01/20 19:03:06;;;;;;;33.83;10.20;;;;;;;;;;8427900;28;20796;-74
2022/01/20 19:07:10;;;;;;;22.27;8.02;;;;;;;;;;8435686;28;20479;-73
2022/01/20 19:11:14;;;;;;;20.90;6.47;;;;;;;;;;8450730;28;20040;-73
2022/01/20 19:15:18;;;;;;;18.65;6.47;;;;;;;;;;8458824;28;20040;-73
2022/01/20 19:19:22;;;;;;;20.05;6.47;;;;;;;;;;8453214;28;20423;-73
2022/01/20 19:23:26;;;;;;;16.45;5.80;;;;;;;;;;8455766;28;20131;-73
2022/01/20 19:27:30;;;;;;;19.15;6.35;;;;;;;;;;8448475;28;20051;-77
2022/01/20 19:31:33;;;;;;;16.70;6.40;;;;;;;;;;8457779;28;20048;-73
2022/01/20 19:35:36;;;;;;;19.95;6.07;;;;;;;;;;8462632;28;20036;-73
2022/01/20 19:39:41;;;;;;;15.52;5.43;;;;;;;;;;8458382;28;20495;-73
2022/01/20 19:43:48;;;;;;;20.27;6.07;;;;;;;;;;8465480;28;20676;-73
2022/01/20 19:47:51;;;;;;;19.58;7.28;;;;;;;;;;8452904;28;20493;-73
2022/01/20 19:51:54;;;;;;;16.70;5.05;;;;;;;;;;8468289;28;20097;-73
2022/01/20 19:55:57;;;;;;;15.77;3.97;;;;;;;;;;8468077;28;20048;-73
2022/01/20 20:00:02;;;;;;;14.25;5.72;;;;;;;;;;8467987;28;20067;-73
2022/01/20 20:04:06;;;;;;;18.80;4.88;;;;;;;;;;8467692;28;20403;-74
2022/01/20 20:08:10;;;;;;;21.17;6.43;;;;;;;;;;8468013;28;20047;-73
2022/01/20 20:12:16;;;;;;;13.32;4.90;;;;;;;;;;8458756;28;20059;-73
2022/01/20 20:16:24;;;;;;;23.88;4.93;;;;;;;;;;8452518;28;20052;-74
2022/01/20 20:20:27;;;;;;;21.15;5.57;;;;;;;;;;8461867;28;20051;-72
2022/01/20 20:24:31;;;;;;;13.38;5.68;;;;;;;;;;8467119;28;20074;-72
2022/01/20 20:28:35;;;;;;;19.70;7.75;;;;;;;;;;8461841;28;20066;-73
2022/01/20 20:32:39;;;;;;;13.25;5.10;;;;;;;;;;8447131;28;20043;-73
2022/01/20 20:36:44;;;;;;;13.07;5.38;;;;;;;;;;8448295;28;20048;-73
2022/01/20 20:40:47;;;;;;;17.27;5.60;;;;;;;;;;8451415;28;20124;-74
2022/01/20 20:44:50;;;;;;;18.45;6.18;;;;;;;;;;8429857;28;20048;-73
2022/01/20 20:48:55;;;;;;;20.00;6.90;;;;;;;;;;8430594;28;20078;-73
2022/01/20 20:53:00;;;;;;;16.20;6.07;;;;;;;;;;8431253;28;20475;-73
2022/01/20 20:57:03;;;;;;;19.52;5.72;;;;;;;;;;8454874;28;20051;-73
2022/01/20 21:01:07;;;;;;;18.42;5.97;;;;;;;;;;8465863;28;20100;-73
2022/01/20 21:05:12;;;;;;;16.45;6.40;;;;;;;;;;8465697;28;20453;-72
2022/01/20 21:09:16;;;;;;;21.73;7.65;;;;;;;;;;8465562;28;20047;-73
2022/01/20 21:13:18;;;;;;;21.60;5.43;;;;;;;;;;8465447;28;20044;-73
2022/01/20 21:17:21;;;;;;;17.15;4.97;;;;;;;;;;8459645;28;20052;-73
2022/01/20 21:21:25;;;;;;;18.90;5.38;;;;;;;;;;8431628;28;20043;-73
2022/01/20 21:25:29;;;;;;;17.73;4.80;;;;;;;;;;8431489;28;20044;-73
2022/01/20 21:29:32;;;;;;;10.40;4.15;;;;;;;;;;8430526;28;20056;-73
2022/01/20 21:33:41;;;;;;;17.45;5.85;;;;;;;;;;8431213;28;20043;-73
2022/01/20 21:37:45;;;;;;;10.77;4.55;;;;;;;;;;8431147;28;20044;-73
2022/01/20 21:41:48;;;;;;;11.32;4.60;;;;;;;;;;8431424;28;20044;-75
2022/01/20 21:45:51;;;;;;;15.13;5.07;;;;;;;;;;8430942;28;20082;-72
2022/01/20 21:49:54;;;;;;;13.90;4.75;;;;;;;;;;8430747;28;20471;-73
2022/01/20 21:53:58;;;;;;;8.95;4.00;;;;;;;;;;8431187;28;20051;-73
2022/01/20 21:58:01;;;;;;;14.48;4.65;;;;;;;;;;8430601;28;20055;-72
2022/01/20 22:02:06;;;;;;;14.13;4.55;;;;;;;;;;8431000;28;20471;-76
2022/01/20 22:06:08;;;;;;;11.77;4.88;;;;;;;;;;8430900;28;20044;-76
2022/01/20 22:10:23;;;;;;;10.48;3.72;;;;;;;;;;8430679;28;20545;-74
2022/01/20 22:14:28;;;;;;;8.10;3.83;;;;;;;;;;8430326;28;20043;-74
2022/01/20 22:18:32;;;;;;;12.07;3.78;;;;;;;;;;8430176;28;20044;-73
2022/01/20 22:22:35;;;;;;;13.15;4.53;;;;;;;;;;8430600;28;20070;-73
2022/01/20 22:26:39;;;;;;;7.75;4.13;;;;;;;;;;8429867;28;20119;-74
2022/01/20 22:30:42;;;;;;;11.30;3.70;;;;;;;;;;8430398;28;20048;-75
2022/01/20 22:34:45;;;;;;;8.18;3.45;;;;;;;;;;8429914;28;20051;-74
2022/01/20 22:38:48;;;;;;;8.73;3.08;;;;;;;;;;8431201;28;20399;-73
2022/01/20 22:42:53;;;;;;;5.82;2.90;;;;;;;;;;8436678;28;20093;-74
2022/01/20 22:46:56;;;;;;;10.70;3.50;;;;;;;;;;8436957;28;20511;-74
2022/01/20 22:51:00;;;;;;;8.32;3.33;;;;;;;;;;8436364;28;20556;-76
2022/01/20 22:55:03;;;;;;;10.18;3.35;;;;;;;;;;8436196;28;20048;-75
2022/01/20 22:59:10;;;;;;;8.75;2.78;;;;;;;;;;8436127;28;20041;-79
2022/01/20 23:03:14;;;;;;;8.68;2.60;;;;;;;;;;8435896;28;20051;-78
2022/01/20 23:07:16;;;;;;;8.52;3.33;;;;;;;;;;8435854;28;20044;-75
2022/01/20 23:11:19;;;;;;;9.68;3.78;;;;;;;;;;8436063;28;20506;-74
2022/01/20 23:15:29;;;;;;;9.45;3.33;;;;;;;;;;8442726;28;20131;-76
2022/01/20 23:23:53;;;;;;;6.30;3.45;;;;;;;;;;8467397;28;20654;-75
2022/01/20 23:27:58;;;;;;;6.40;3.20;;;;;;;;;;8468725;28;20078;-74
2022/01/20 23:32:02;;;;;;;9.13;4.50;;;;;;;;;;8453823;28;20043;-75
2022/01/20 23:36:05;;;;;;;13.07;4.28;;;;;;;;;;8434958;28;20051;-77
2022/01/20 23:40:11;;;;;;;8.82;4.20;;;;;;;;;;8435283;28;20048;-76
2022/01/20 23:44:35;;;;;;;5.82;3.53;;;;;;;;;;8435286;28;20442;-74
2022/01/20 23:48:39;;;;;;;14.55;4.57;;;;;;;;;;8434996;28;20055;-75
2022/01/20 23:52:41;;;;;;;11.13;4.28;;;;;;;;;;8434470;28;20384;-74
2022/01/20 23:56:44;;;;;;;7.88;3.63;;;;;;;;;;8434254;28;20064;-75
